Time,TemperatureF,DewpointF,PressureIn,WindDirection,WindDirectionDegrees,WindSpeedMPH,WindSpeedGustMPH,Humidity,HourlyPrecipIn,Conditions,Clouds,dailyrainin,SoftwareType,DateUTC
2013-03-03 00:00:00,21.2,16.9,30.09,WNW,295,3.0,7.0,83,0.00,,---,0.00,VWS V14.01,2013-03-03 05:00:00,
2013-03-03 00:05:00,21.2,16.9,30.09,WNW,295,2.0,8.0,83,0.00,,---,0.00,VWS V14.01,2013-03-03 05:05:00,
2013-03-03 00:11:00,21.2,16.9,30.09,NW,311,5.0,8.0,83,0.00,,---,0.00,VWS V14.01,2013-03-03 05:11:00,
2013-03-03 00:16:00,21.2,16.9,30.09,NW,307,4.0,8.0,83,0.00,,---,0.00,VWS V14.01,2013-03-03 05:16:00,
2013-03-03 00:21:00,21.2,16.9,30.09,WNW,284,4.0,8.0,83,0.00,,---,0.00,VWS V14.01,2013-03-03 05:21:00,
2013-03-03 00:26:00,21.2,16.9,30.09,West,276,2.0,8.0,83,0.00,,---,0.00,VWS V14.01,2013-03-03 05:26:00,
2013-03-03 00:31:00,21.2,16.9,30.09,NNW,328,2.0,8.0,83,0.00,,---,0.00,VWS V14.01,2013-03-03 05:31:00,
2013-03-03 00:36:00,21.2,16.9,30.09,NNW,332,2.0,8.0,83,0.00,,---,0.00,VWS V14.01,2013-03-03 05:36:00,
2013-03-03 00:41:00,21.3,17.0,30.09,North,11,2.0,8.0,83,0.00,,---,0.00,VWS V14.01,2013-03-03 05:41:00,
2013-03-03 00:46:00,21.3,17.0,30.09,NW,326,1.0,8.0,83,0.00,,---,0.00,VWS V14.01,2013-03-03 05:46:00,
2013-03-03 00:51:00,21.3,17.2,30.09,NW,321,1.0,8.0,84,0.00,,---,0.00,VWS V14.01,2013-03-03 05:51:00,
2013-03-03 00:57:00,21.3,17.0,30.09,WNW,291,3.0,8.0,83,0.00,,---,0.00,VWS V14.01,2013-03-03 05:57:00,
2013-03-03 01:02:00,21.3,17.0,30.09,WNW,290,3.0,3.0,83,0.00,,---,0.00,VWS V14.01,2013-03-03 06:02:00,
2013-03-03 01:07:00,21.3,17.0,30.09,West,271,1.0,6.0,83,0.00,,---,0.00,VWS V14.01,2013-03-03 06:07:00,
2013-03-03 01:12:00,21.3,17.0,30.09,WNW,296,4.0,6.0,83,0.00,,---,0.00,VWS V14.01,2013-03-03 06:12:00,
2013-03-03 01:17:00,21.4,17.0,30.09,NW,307,3.0,6.0,83,0.00,,---,0.00,VWS V14.01,2013-03-03 06:17:00,
2013-03-03 01:22:00,21.3,17.0,30.09,NNW,328,2.0,7.0,83,0.00,,---,0.00,VWS V14.01,2013-03-03 06:22:00,
2013-03-03 01:27:00,21.4,17.0,30.09,NNW,328,2.0,7.0,83,0.00,,---,0.00,VWS V14.01,2013-03-03 06:27:00,
2013-03-03 01:33:00,21.3,17.0,30.09,WNW,295,4.0,7.0,83,0.00,,---,0.00,VWS V14.01,2013-03-03 06:33:00,
2013-03-03 01:38:00,21.3,17.0,30.09,WNW,283,4.0,7.0,83,0.00,,---,0.00,VWS V14.01,2013-03-03 06:38:00,
2013-03-03 01:43:00,21.3,17.0,30.09,WNW,290,3.0,7.0,83,0.00,,---,0.00,VWS V14.01,2013-03-03 06:43:00,
2013-03-03 01:48:00,21.3,17.0,30.09,WNW,292,2.0,7.0,83,0.00,,---,0.00,VWS V14.01,2013-03-03 06:48:00,
2013-03-03 01:53:00,21.3,17.0,30.09,NW,316,5.0,7.0,83,0.00,,---,0.00,VWS V14.01,2013-03-03 06:53:00,
2013-03-03 01:58:00,21.2,17.1,30.09,NNW,336,5.0,7.0,84,0.00,,---,0.00,VWS V14.01,2013-03-03 06:58:00,
2013-03-03 02:03:00,21.2,17.1,30.09,North,356,3.0,4.0,84,0.00,,---,0.00,VWS V14.01,2013-03-03 07:03:00,
2013-03-03 02:08:00,21.2,17.1,30.08,NW,316,3.0,5.0,84,0.00,,---,0.00,VWS V14.01,2013-03-03 07:08:00,
2013-03-03 02:14:00,21.2,17.1,30.08,NNW,332,2.0,5.0,84,0.00,,---,0.00,VWS V14.01,2013-03-03 07:14:00,
2013-03-03 02:19:00,21.1,17.0,30.08,NNW,340,2.0,5.0,84,0.00,,---,0.00,VWS V14.01,2013-03-03 07:19:00,
2013-03-03 02:24:00,21.1,17.0,30.08,NNW,340,2.0,5.0,84,0.00,,---,0.00,VWS V14.01,2013-03-03 07:24:00,
2013-03-03 02:29:00,21.0,16.9,30.08,North,352,2.0,5.0,84,0.00,,---,0.00,VWS V14.01,2013-03-03 07:29:00,
2013-03-03 02:34:00,21.0,16.9,30.08,NNW,344,3.0,5.0,84,0.00,,---,0.00,VWS V14.01,2013-03-03 07:34:00,
2013-03-03 02:39:00,20.9,17.1,30.08,North,352,1.0,5.0,85,0.00,,---,0.00,VWS V14.01,2013-03-03 07:39:00,
2013-03-03 02:44:00,20.9,17.1,30.08,NNW,345,3.0,5.0,85,0.00,,---,0.00,VWS V14.01,2013-03-03 07:44:00,
2013-03-03 02:49:00,20.9,17.1,30.08,NW,318,2.0,5.0,85,0.00,,---,0.00,VWS V14.01,2013-03-03 07:49:00,
2013-03-03 02:54:00,20.8,17.0,30.07,WNW,296,2.0,6.0,85,0.00,,---,0.00,VWS V14.01,2013-03-03 07:54:00,
2013-03-03 03:00:00,20.8,17.3,30.07,NNW,342,1.0,6.0,86,0.00,,---,0.00,VWS V14.01,2013-03-03 08:00:00,
2013-03-03 03:05:00,20.7,17.2,30.07,NW,315,1.0,3.0,86,0.00,,---,0.00,VWS V14.01,2013-03-03 08:05:00,
2013-03-03 03:10:00,20.7,17.2,30.07,NW,309,1.0,3.0,86,0.00,,---,0.00,VWS V14.01,2013-03-03 08:10:00,
2013-03-03 03:15:00,20.6,17.1,30.07,NW,323,2.0,3.0,86,0.00,,---,0.00,VWS V14.01,2013-03-03 08:15:00,
2013-03-03 03:20:00,20.6,17.1,30.07,NW,321,1.0,3.0,86,0.00,,---,0.00,VWS V14.01,2013-03-03 08:20:00,
2013-03-03 03:25:00,20.6,17.1,30.06,NNW,333,1.0,4.0,86,0.00,,---,0.00,VWS V14.01,2013-03-03 08:25:00,
2013-03-03 03:30:00,20.5,17.2,30.06,NNW,332,2.0,4.0,87,0.00,,---,0.00,VWS V14.01,2013-03-03 08:30:00,
2013-03-03 03:35:00,20.5,17.0,30.06,WNW,299,1.0,4.0,86,0.00,,---,0.00,VWS V14.01,2013-03-03 08:35:00,
2013-03-03 03:40:00,20.3,16.8,30.06,WNW,300,2.0,4.0,86,0.00,,---,0.00,VWS V14.01,2013-03-03 08:40:00,
2013-03-03 03:45:00,20.1,16.9,30.06,WNW,297,1.0,4.0,87,0.00,,---,0.00,VWS V14.01,2013-03-03 08:45:00,
2013-03-03 03:50:00,20.0,16.8,30.06,WNW,290,1.0,4.0,87,0.00,,---,0.00,VWS V14.01,2013-03-03 08:50:00,
2013-03-03 03:55:00,19.8,16.6,30.06,NW,320,1.0,4.0,87,0.00,,---,0.00,VWS V14.01,2013-03-03 08:55:00,
2013-03-03 04:01:00,19.7,16.5,30.06,NW,311,2.0,4.0,87,0.00,,---,0.00,VWS V14.01,2013-03-03 09:01:00,
2013-03-03 04:06:00,19.6,16.4,30.06,WNW,291,3.0,5.0,87,0.00,,---,0.00,VWS V14.01,2013-03-03 09:06:00,
2013-03-03 04:11:00,19.6,16.4,30.06,WNW,294,2.0,8.0,87,0.00,,---,0.00,VWS V14.01,2013-03-03 09:11:00,
2013-03-03 04:16:00,19.4,16.2,30.06,WNW,291,3.0,8.0,87,0.00,,---,0.00,VWS V14.01,2013-03-03 09:16:00,
2013-03-03 04:21:00,19.3,16.1,30.06,WNW,290,3.0,8.0,87,0.00,,---,0.00,VWS V14.01,2013-03-03 09:21:00,
2013-03-03 04:26:00,19.1,15.9,30.06,WNW,300,2.0,8.0,87,0.00,,---,0.00,VWS V14.01,2013-03-03 09:26:00,
2013-03-03 04:31:00,18.8,15.6,30.06,West,279,3.0,8.0,87,0.00,,---,0.00,VWS V14.01,2013-03-03 09:31:00,
2013-03-03 04:36:00,18.6,15.4,30.07,WNW,301,4.0,8.0,87,0.00,,---,0.00,VWS V14.01,2013-03-03 09:36:00,
2013-03-03 04:41:00,18.4,15.4,30.07,WNW,291,4.0,8.0,88,0.00,,---,0.00,VWS V14.01,2013-03-03 09:41:00,
2013-03-03 04:46:00,18.2,15.2,30.07,WNW,288,4.0,8.0,88,0.00,,---,0.00,VWS V14.01,2013-03-03 09:46:00,
2013-03-03 04:52:00,18.0,15.1,30.07,WNW,293,5.0,10.0,88,0.00,,---,0.00,VWS V14.01,2013-03-03 09:52:00,
2013-03-03 04:57:00,17.9,14.9,30.07,NW,310,4.0,10.0,88,0.00,,---,0.00,VWS V14.01,2013-03-03 09:57:00,
2013-03-03 05:02:00,17.7,14.8,30.07,WNW,282,4.0,6.0,88,0.00,,---,0.00,VWS V14.01,2013-03-03 10:02:00,
2013-03-03 05:07:00,17.6,14.7,30.07,WNW,284,3.0,6.0,88,0.00,,---,0.00,VWS V14.01,2013-03-03 10:07:00,
2013-03-03 05:12:00,17.5,14.6,30.07,WNW,300,5.0,7.0,88,0.00,,---,0.00,VWS V14.01,2013-03-03 10:12:00,
2013-03-03 05:17:00,17.3,14.4,30.07,NNW,335,5.0,7.0,88,0.00,,---,0.00,VWS V14.01,2013-03-03 10:17:00,
2013-03-03 05:22:00,17.2,14.3,30.07,WNW,293,1.0,7.0,88,0.00,,---,0.00,VWS V14.01,2013-03-03 10:22:00,
2013-03-03 05:27:00,17.0,14.1,30.07,NW,304,4.0,7.0,88,0.00,,---,0.00,VWS V14.01,2013-03-03 10:27:00,
2013-03-03 05:32:00,16.9,14.0,30.07,WNW,293,6.0,7.0,88,0.00,,---,0.00,VWS V14.01,2013-03-03 10:32:00,
2013-03-03 05:37:00,16.7,13.8,30.07,NW,314,7.0,7.0,88,0.00,,---,0.00,VWS V14.01,2013-03-03 10:37:00,
2013-03-03 05:43:00,16.5,13.6,30.07,WNW,295,5.0,7.0,88,0.00,,---,0.00,VWS V14.01,2013-03-03 10:43:00,
2013-03-03 05:48:00,16.4,13.2,30.07,NW,311,3.0,7.0,87,0.00,,---,0.00,VWS V14.01,2013-03-03 10:48:00,
2013-03-03 05:53:00,16.2,13.0,30.07,NNW,333,3.0,7.0,87,0.00,,---,0.00,VWS V14.01,2013-03-03 10:53:00,
2013-03-03 05:58:00,16.0,12.8,30.07,NW,309,4.0,7.0,87,0.00,,---,0.00,VWS V14.01,2013-03-03 10:58:00,
2013-03-03 06:03:00,15.8,12.9,30.07,NNW,338,1.0,5.0,88,0.00,,---,0.00,VWS V14.01,2013-03-03 11:03:00,
2013-03-03 06:08:00,15.7,12.8,30.07,WNW,288,1.0,5.0,88,0.00,,---,0.00,VWS V14.01,2013-03-03 11:08:00,
2013-03-03 06:13:00,15.5,12.6,30.07,NW,307,4.0,6.0,88,0.00,,---,0.00,VWS V14.01,2013-03-03 11:13:00,
2013-03-03 06:18:00,15.3,12.4,30.07,NW,326,1.0,6.0,88,0.00,,---,0.00,VWS V14.01,2013-03-03 11:18:00,
2013-03-03 06:24:00,15.2,12.6,30.07,WNW,298,1.0,6.0,89,0.00,,---,0.00,VWS V14.01,2013-03-03 11:24:00,
2013-03-03 06:29:00,15.0,12.4,30.07,West,280,1.0,6.0,89,0.00,,---,0.00,VWS V14.01,2013-03-03 11:29:00,
2013-03-03 06:34:00,14.8,12.1,30.07,WNW,294,1.0,6.0,89,0.00,,---,0.00,VWS V14.01,2013-03-03 11:34:00,
2013-03-03 06:39:00,14.7,12.1,30.07,West,270,0.0,6.0,89,0.00,,---,0.00,VWS V14.01,2013-03-03 11:39:00,
2013-03-03 06:44:00,14.6,12.2,30.07,NW,314,0.0,6.0,90,0.00,,---,0.00,VWS V14.01,2013-03-03 11:44:00,
2013-03-03 06:49:00,14.4,12.0,30.07,WNW,302,2.0,6.0,90,0.00,,---,0.00,VWS V14.01,2013-03-03 11:49:00,
2013-03-03 06:54:00,14.4,12.0,30.07,NW,325,0.0,6.0,90,0.00,,---,0.00,VWS V14.01,2013-03-03 11:54:00,
2013-03-03 06:59:00,14.2,11.8,30.07,NNW,328,0.0,6.0,90,0.00,,---,0.00,VWS V14.01,2013-03-03 11:59:00,
2013-03-03 07:05:00,14.1,11.7,30.08,NW,323,2.0,3.0,90,0.00,,---,0.00,VWS V14.01,2013-03-03 12:05:00,
2013-03-03 07:10:00,14.0,11.6,30.08,North,6,0.0,3.0,90,0.00,,---,0.00,VWS V14.01,2013-03-03 12:10:00,
2013-03-03 07:15:00,13.9,11.5,30.08,WNW,285,1.0,3.0,90,0.00,,---,0.00,VWS V14.01,2013-03-03 12:15:00,
2013-03-03 07:20:00,13.9,11.5,30.08,NW,314,1.0,4.0,90,0.00,,---,0.00,VWS V14.01,2013-03-03 12:20:00,
2013-03-03 07:25:00,13.9,11.5,30.08,WNW,289,0.0,4.0,90,0.00,,---,0.00,VWS V14.01,2013-03-03 12:25:00,
2013-03-03 07:30:00,14.0,11.6,30.08,NNW,335,2.0,4.0,90,0.00,,---,0.00,VWS V14.01,2013-03-03 12:30:00,
2013-03-03 07:35:00,14.2,11.8,30.08,NNW,336,1.0,4.0,90,0.00,,---,0.00,VWS V14.01,2013-03-03 12:35:00,
2013-03-03 07:40:00,14.5,12.1,30.08,WNW,298,2.0,4.0,90,0.00,,---,0.00,VWS V14.01,2013-03-03 12:40:00,
2013-03-03 07:45:00,14.8,12.4,30.08,WNW,285,1.0,4.0,90,0.00,,---,0.00,VWS V14.01,2013-03-03 12:45:00,
2013-03-03 07:51:00,15.2,12.6,30.08,WNW,282,1.0,4.0,89,0.00,,---,0.00,VWS V14.01,2013-03-03 12:51:00,
2013-03-03 07:56:00,15.5,12.8,30.08,WNW,301,2.0,5.0,89,0.00,,---,0.00,VWS V14.01,2013-03-03 12:56:00,
2013-03-03 08:01:00,15.9,13.0,30.08,West,264,3.0,5.0,88,0.00,,---,0.00,VWS V14.01,2013-03-03 13:01:00,
2013-03-03 08:06:00,16.2,13.3,30.08,WNW,294,4.0,7.0,88,0.00,,---,0.00,VWS V14.01,2013-03-03 13:06:00,
2013-03-03 08:11:00,16.5,13.3,30.08,WNW,302,3.0,8.0,87,0.00,,---,0.00,VWS V14.01,2013-03-03 13:11:00,
2013-03-03 08:17:00,16.9,13.7,30.08,WNW,290,2.0,8.0,87,0.00,,---,0.00,VWS V14.01,2013-03-03 13:17:00,
2013-03-03 08:22:00,17.2,13.7,30.08,NW,304,3.0,8.0,86,0.00,,---,0.00,VWS V14.01,2013-03-03 13:22:00,
2013-03-03 08:27:00,17.6,14.1,30.08,WNW,298,6.0,8.0,86,0.00,,---,0.00,VWS V14.01,2013-03-03 13:27:00,
2013-03-03 08:32:00,17.9,14.2,30.08,WNW,294,7.0,10.0,85,0.00,,---,0.00,VWS V14.01,2013-03-03 13:32:00,
2013-03-03 08:37:00,18.2,14.2,30.08,WNW,294,6.0,10.0,84,0.00,,---,0.00,VWS V14.01,2013-03-03 13:37:00,
2013-03-03 08:42:00,18.5,14.5,30.08,NNW,332,4.0,10.0,84,0.00,,---,0.00,VWS V14.01,2013-03-03 13:42:00,
2013-03-03 08:47:00,18.7,14.4,30.08,NW,318,3.0,12.0,83,0.00,,---,0.00,VWS V14.01,2013-03-03 13:47:00,
2013-03-03 08:52:00,19.0,14.4,30.08,NW,316,4.0,12.0,82,0.00,,---,0.00,VWS V14.01,2013-03-03 13:52:00,
2013-03-03 08:58:00,19.2,14.3,30.08,NNW,343,9.0,12.0,81,0.00,,---,0.00,VWS V14.01,2013-03-03 13:58:00,
2013-03-03 09:03:00,19.5,14.6,30.08,NW,306,3.0,9.0,81,0.00,,---,0.00,VWS V14.01,2013-03-03 14:03:00,
2013-03-03 09:08:00,19.6,14.4,30.08,NNW,328,10.0,10.0,80,0.00,,---,0.00,VWS V14.01,2013-03-03 14:08:00,
2013-03-03 09:13:00,19.9,14.7,30.08,NNW,328,3.0,13.0,80,0.00,,---,0.00,VWS V14.01,2013-03-03 14:13:00,
2013-03-03 09:18:00,20.1,14.6,30.08,North,353,4.0,13.0,79,0.00,,---,0.00,VWS V14.01,2013-03-03 14:18:00,
2013-03-03 09:23:00,20.3,14.8,30.08,NW,312,7.0,14.0,79,0.00,,---,0.00,VWS V14.01,2013-03-03 14:23:00,
2013-03-03 09:28:00,20.1,14.4,30.08,NNW,346,8.0,14.0,78,0.00,,---,0.00,VWS V14.01,2013-03-03 14:28:00,
2013-03-03 09:33:00,20.2,14.4,30.08,NW,324,8.0,14.0,78,0.00,,---,0.00,VWS V14.01,2013-03-03 14:33:00,
2013-03-03 09:38:00,20.4,14.9,30.08,WNW,294,6.0,15.0,79,0.00,,---,0.00,VWS V14.01,2013-03-03 14:38:00,
2013-03-03 09:44:00,20.6,14.8,30.07,NW,326,6.0,15.0,78,0.00,,---,0.00,VWS V14.01,2013-03-03 14:44:00,
2013-03-03 09:49:00,20.9,14.8,30.08,NW,321,5.0,15.0,77,0.00,,---,0.00,VWS V14.01,2013-03-03 14:49:00,
2013-03-03 09:54:00,21.1,15.0,30.07,NW,324,6.0,15.0,77,0.00,,---,0.00,VWS V14.01,2013-03-03 14:54:00,
2013-03-03 09:59:00,20.9,14.8,30.08,NW,307,14.0,15.0,77,0.00,,---,0.00,VWS V14.01,2013-03-03 14:59:00,
2013-03-03 10:04:00,21.1,15.3,30.08,WNW,300,7.0,11.0,78,0.00,,---,0.00,VWS V14.01,2013-03-03 15:04:00,
2013-03-03 10:09:00,21.3,15.2,30.08,NW,304,5.0,13.0,77,0.00,,---,0.00,VWS V14.01,2013-03-03 15:09:00,
2013-03-03 10:14:00,21.5,15.4,30.08,NW,310,7.0,13.0,77,0.00,,---,0.00,VWS V14.01,2013-03-03 15:14:00,
2013-03-03 10:19:00,21.5,15.1,30.08,NW,306,5.0,13.0,76,0.00,,---,0.00,VWS V14.01,2013-03-03 15:19:00,
2013-03-03 10:24:00,21.6,15.5,30.08,WNW,301,9.0,13.0,77,0.00,,---,0.00,VWS V14.01,2013-03-03 15:24:00,
2013-03-03 10:29:00,21.8,15.7,30.07,NW,323,12.0,13.0,77,0.00,,---,0.00,VWS V14.01,2013-03-03 15:29:00,
2013-03-03 10:35:00,21.7,15.3,30.08,NNW,336,8.0,13.0,76,0.00,,---,0.00,VWS V14.01,2013-03-03 15:35:00,
2013-03-03 10:40:00,21.8,15.1,30.07,WNW,290,8.0,14.0,75,0.00,,---,0.00,VWS V14.01,2013-03-03 15:40:00,
2013-03-03 10:45:00,21.9,15.2,30.07,NW,324,8.0,15.0,75,0.00,,---,0.00,VWS V14.01,2013-03-03 15:45:00,
2013-03-03 10:50:00,22.0,15.6,30.07,NW,316,6.0,15.0,76,0.00,,---,0.00,VWS V14.01,2013-03-03 15:50:00,
2013-03-03 10:55:00,22.2,15.2,30.07,NW,319,7.0,15.0,74,0.00,,---,0.00,VWS V14.01,2013-03-03 15:55:00,
2013-03-03 11:00:00,22.4,15.7,30.07,NW,314,7.0,15.0,75,0.00,,---,0.00,VWS V14.01,2013-03-03 16:00:00,
2013-03-03 11:05:00,22.8,15.8,30.07,WNW,300,7.0,10.0,74,0.00,,---,0.00,VWS V14.01,2013-03-03 16:05:00,
2013-03-03 11:10:00,22.7,15.4,30.07,WNW,293,7.0,11.0,73,0.00,,---,0.00,VWS V14.01,2013-03-03 16:10:00,
2013-03-03 11:16:00,22.6,15.3,30.07,NW,306,8.0,11.0,73,0.00,,---,0.00,VWS V14.01,2013-03-03 16:16:00,
2013-03-03 11:21:00,22.8,15.1,30.07,WNW,297,6.0,12.0,72,0.00,,---,0.00,VWS V14.01,2013-03-03 16:21:00,
2013-03-03 11:26:00,23.1,15.4,30.07,NNW,334,3.0,12.0,72,0.00,,---,0.00,VWS V14.01,2013-03-03 16:26:00,
2013-03-03 11:31:00,23.0,15.0,30.07,NW,314,7.0,13.0,71,0.00,,---,0.00,VWS V14.01,2013-03-03 16:31:00,
2013-03-03 11:36:00,23.4,15.1,30.07,NW,326,4.0,14.0,70,0.00,,---,0.00,VWS V14.01,2013-03-03 16:36:00,
2013-03-03 11:41:00,23.4,15.4,30.07,WNW,294,4.0,14.0,71,0.00,,---,0.00,VWS V14.01,2013-03-03 16:41:00,
2013-03-03 11:46:00,23.2,14.9,30.07,NNW,333,7.0,14.0,70,0.00,,---,0.00,VWS V14.01,2013-03-03 16:46:00,
2013-03-03 11:51:00,23.0,14.7,30.07,NW,305,6.0,14.0,70,0.00,,---,0.00,VWS V14.01,2013-03-03 16:51:00,
2013-03-03 11:56:00,23.0,15.0,30.07,NW,322,10.0,14.0,71,0.00,,---,0.00,VWS V14.01,2013-03-03 16:56:00,
2013-03-03 12:01:00,23.2,14.9,30.07,WNW,300,6.0,6.0,70,0.00,,---,0.00,VWS V14.01,2013-03-03 17:01:00,
2013-03-03 12:07:00,23.1,14.8,30.07,NW,312,5.0,12.0,70,0.00,,---,0.00,VWS V14.01,2013-03-03 17:07:00,
2013-03-03 12:12:00,23.4,15.1,30.07,WNW,285,7.0,12.0,70,0.00,,---,0.00,VWS V14.01,2013-03-03 17:12:00,
2013-03-03 12:17:00,23.6,15.3,30.07,NW,311,5.0,12.0,70,0.00,,---,0.00,VWS V14.01,2013-03-03 17:17:00,
2013-03-03 12:22:00,23.7,15.4,30.07,NW,309,3.0,14.0,70,0.00,,---,0.00,VWS V14.01,2013-03-03 17:22:00,
2013-03-03 12:27:00,23.8,15.1,30.07,NW,315,7.0,14.0,69,0.00,,---,0.00,VWS V14.01,2013-03-03 17:27:00,
2013-03-03 12:32:00,24.0,15.0,30.06,NNW,340,5.0,14.0,68,0.00,,---,0.00,VWS V14.01,2013-03-03 17:32:00,
2013-03-03 12:37:00,24.0,14.6,30.06,NW,318,11.0,14.0,67,0.00,,---,0.00,VWS V14.01,2013-03-03 17:37:00,
2013-03-03 12:42:00,24.2,14.8,30.06,West,263,6.0,14.0,67,0.00,,---,0.00,VWS V14.01,2013-03-03 17:42:00,
2013-03-03 12:48:00,23.9,14.9,30.06,NNE,23,7.0,14.0,68,0.00,,---,0.00,VWS V14.01,2013-03-03 17:48:00,
2013-03-03 12:53:00,23.8,15.1,30.05,NW,324,8.0,14.0,69,0.00,,---,0.00,VWS V14.01,2013-03-03 17:53:00,
2013-03-03 12:58:00,24.1,15.1,30.05,WNW,285,3.0,14.0,68,0.00,,---,0.00,VWS V14.01,2013-03-03 17:58:00,
2013-03-03 13:03:00,24.1,15.1,30.05,NNW,342,5.0,12.0,68,0.00,,---,0.00,VWS V14.01,2013-03-03 18:03:00,
2013-03-03 13:08:00,24.3,14.9,30.05,WNW,295,8.0,12.0,67,0.00,,---,0.00,VWS V14.01,2013-03-03 18:08:00,
2013-03-03 13:13:00,24.6,15.2,30.05,NW,314,6.0,16.0,67,0.00,,---,0.00,VWS V14.01,2013-03-03 18:13:00,
2013-03-03 13:18:00,24.6,15.2,30.04,WNW,302,8.0,18.0,67,0.00,,---,0.00,VWS V14.01,2013-03-03 18:18:00,
2013-03-03 13:23:00,24.9,15.5,30.04,West,281,9.0,18.0,67,0.00,,---,0.00,VWS V14.01,2013-03-03 18:23:00,
2013-03-03 13:29:00,25.4,16.0,30.04,NW,314,2.0,18.0,67,0.00,,---,0.00,VWS V14.01,2013-03-03 18:29:00,
2013-03-03 13:34:00,25.4,15.6,30.04,NW,310,6.0,18.0,66,0.00,,---,0.00,VWS V14.01,2013-03-03 18:34:00,
2013-03-03 13:39:00,25.7,15.9,30.04,NNW,338,11.0,18.0,66,0.00,,---,0.00,VWS V14.01,2013-03-03 18:39:00,
2013-03-03 13:44:00,25.6,15.8,30.04,NW,314,5.0,18.0,66,0.00,,---,0.00,VWS V14.01,2013-03-03 18:44:00,
2013-03-03 13:49:00,25.7,15.6,30.04,WNW,291,5.0,18.0,65,0.00,,---,0.00,VWS V14.01,2013-03-03 18:49:00,
2013-03-03 13:54:00,25.7,15.6,30.03,NNW,328,6.0,18.0,65,0.00,,---,0.00,VWS V14.01,2013-03-03 18:54:00,
2013-03-03 13:59:00,25.6,15.8,30.03,NW,312,6.0,18.0,66,0.00,,---,0.00,VWS V14.01,2013-03-03 18:59:00,
2013-03-03 14:04:00,25.9,16.1,30.03,NW,311,5.0,9.0,66,0.00,,---,0.00,VWS V14.01,2013-03-03 19:04:00,
2013-03-03 14:09:00,26.3,16.5,30.03,NW,315,7.0,10.0,66,0.00,,---,0.00,VWS V14.01,2013-03-03 19:09:00,
2013-03-03 14:15:00,26.0,15.9,30.03,NNW,335,6.0,13.0,65,0.00,,---,0.00,VWS V14.01,2013-03-03 19:15:00,
2013-03-03 14:20:00,26.1,16.0,30.03,NW,308,8.0,13.0,65,0.00,,---,0.00,VWS V14.01,2013-03-03 19:20:00,
2013-03-03 14:25:00,25.7,15.9,30.03,NNW,338,4.0,16.0,66,0.00,,---,0.00,VWS V14.01,2013-03-03 19:25:00,
2013-03-03 14:30:00,25.6,15.8,30.03,NW,318,6.0,16.0,66,0.00,,---,0.00,VWS V14.01,2013-03-03 19:30:00,
2013-03-03 14:35:00,25.6,15.8,30.03,NW,305,8.0,16.0,66,0.00,,---,0.00,VWS V14.01,2013-03-03 19:35:00,
2013-03-03 14:40:00,25.8,16.4,30.03,NW,304,7.0,16.0,67,0.00,,---,0.00,VWS V14.01,2013-03-03 19:40:00,
2013-03-03 14:45:00,25.9,16.5,30.03,NNW,339,4.0,16.0,67,0.00,,---,0.00,VWS V14.01,2013-03-03 19:45:00,
2013-03-03 14:50:00,26.0,16.6,30.03,NW,321,3.0,16.0,67,0.00,,---,0.00,VWS V14.01,2013-03-03 19:50:00,
2013-03-03 14:55:00,25.7,16.6,30.03,WNW,297,5.0,16.0,68,0.00,,---,0.00,VWS V14.01,2013-03-03 19:55:00,
2013-03-03 15:00:00,26.1,16.7,30.03,North,358,9.0,16.0,67,0.00,,---,0.00,VWS V14.01,2013-03-03 20:00:00,
2013-03-03 15:06:00,26.0,16.9,30.03,NW,304,6.0,11.0,68,0.00,,---,0.00,VWS V14.01,2013-03-03 20:06:00,
2013-03-03 15:11:00,25.9,16.8,30.03,North,9,6.0,11.0,68,0.00,,---,0.00,VWS V14.01,2013-03-03 20:11:00,
2013-03-03 15:16:00,25.9,16.8,30.03,WNW,300,6.0,11.0,68,0.00,,---,0.00,VWS V14.01,2013-03-03 20:16:00,
2013-03-03 15:21:00,25.7,16.6,30.03,NNW,340,7.0,11.0,68,0.00,,---,0.00,VWS V14.01,2013-03-03 20:21:00,
2013-03-03 15:26:00,25.5,16.4,30.03,NW,323,7.0,14.0,68,0.00,,---,0.00,VWS V14.01,2013-03-03 20:26:00,
2013-03-03 15:31:00,25.4,16.7,30.03,NNW,333,4.0,14.0,69,0.00,,---,0.00,VWS V14.01,2013-03-03 20:31:00,
2013-03-03 15:36:00,25.5,16.8,30.03,NNW,344,7.0,14.0,69,0.00,,---,0.00,VWS V14.01,2013-03-03 20:36:00,
2013-03-03 15:41:00,25.4,16.7,30.03,NNW,334,6.0,14.0,69,0.00,,---,0.00,VWS V14.01,2013-03-03 20:41:00,
2013-03-03 15:47:00,25.6,16.9,30.03,NNW,332,7.0,14.0,69,0.00,,---,0.00,VWS V14.01,2013-03-03 20:47:00,
2013-03-03 15:52:00,25.5,16.8,30.03,North,4,7.0,14.0,69,0.00,,---,0.00,VWS V14.01,2013-03-03 20:52:00,
2013-03-03 15:57:00,25.4,16.7,30.03,NNW,342,8.0,14.0,69,0.00,,---,0.00,VWS V14.01,2013-03-03 20:57:00,
2013-03-03 16:02:00,25.4,16.7,30.04,NW,307,8.0,10.0,69,0.00,,---,0.00,VWS V14.01,2013-03-03 21:02:00,
2013-03-03 16:07:00,25.8,17.0,30.04,NNW,336,6.0,11.0,69,0.00,,---,0.00,VWS V14.01,2013-03-03 21:07:00,
2013-03-03 16:12:00,25.9,16.8,30.03,North,350,10.0,11.0,68,0.00,,---,0.00,VWS V14.01,2013-03-03 21:12:00,
2013-03-03 16:17:00,26.1,17.3,30.04,NW,314,2.0,11.0,69,0.00,,---,0.00,VWS V14.01,2013-03-03 21:17:00,
2013-03-03 16:22:00,26.4,17.3,30.04,NW,314,6.0,15.0,68,0.00,,---,0.00,VWS V14.01,2013-03-03 21:22:00,
2013-03-03 16:28:00,26.2,17.1,30.04,North,5,6.0,15.0,68,0.00,,---,0.00,VWS V14.01,2013-03-03 21:28:00,
2013-03-03 16:33:00,25.8,16.7,30.04,NNW,347,5.0,15.0,68,0.00,,---,0.00,VWS V14.01,2013-03-03 21:33:00,
2013-03-03 16:38:00,25.6,16.9,30.04,WNW,300,6.0,15.0,69,0.00,,---,0.00,VWS V14.01,2013-03-03 21:38:00,
2013-03-03 16:43:00,25.6,16.9,30.05,NW,326,8.0,15.0,69,0.00,,---,0.00,VWS V14.01,2013-03-03 21:43:00,
2013-03-03 16:48:00,25.6,16.9,30.04,NNW,344,9.0,15.0,69,0.00,,---,0.00,VWS V14.01,2013-03-03 21:48:00,
2013-03-03 16:53:00,25.5,16.8,30.05,NW,326,5.0,15.0,69,0.00,,---,0.00,VWS V14.01,2013-03-03 21:53:00,
2013-03-03 16:58:00,25.5,17.1,30.05,NW,315,4.0,15.0,70,0.00,,---,0.00,VWS V14.01,2013-03-03 21:58:00,
2013-03-03 17:04:00,25.5,16.8,30.05,NNE,23,6.0,9.0,69,0.00,,---,0.00,VWS V14.01,2013-03-03 22:04:00,
2013-03-03 17:09:00,25.6,16.9,30.05,North,358,6.0,10.0,69,0.00,,---,0.00,VWS V14.01,2013-03-03 22:09:00,
2013-03-03 17:14:00,25.9,16.8,30.05,NNW,332,6.0,11.0,68,0.00,,---,0.00,VWS V14.01,2013-03-03 22:14:00,
2013-03-03 17:19:00,26.2,16.8,30.05,West,281,4.0,11.0,67,0.00,,---,0.00,VWS V14.01,2013-03-03 22:19:00,
2013-03-03 17:24:00,26.5,16.7,30.05,NW,308,4.0,11.0,66,0.00,,---,0.00,VWS V14.01,2013-03-03 22:24:00,
2013-03-03 17:29:00,26.5,16.7,30.05,WNW,294,3.0,11.0,66,0.00,,---,0.00,VWS V14.01,2013-03-03 22:29:00,
2013-03-03 17:35:00,26.7,16.9,30.05,NNE,22,4.0,11.0,66,0.00,,---,0.00,VWS V14.01,2013-03-03 22:35:00,
2013-03-03 17:40:00,26.6,16.8,30.05,NNE,23,4.0,11.0,66,0.00,,---,0.00,VWS V14.01,2013-03-03 22:40:00,
2013-03-03 17:45:00,26.6,17.1,30.05,NNW,342,4.0,11.0,67,0.00,,---,0.00,VWS V14.01,2013-03-03 22:45:00,
2013-03-03 17:50:00,26.6,16.8,30.05,North,354,5.0,11.0,66,0.00,,---,0.00,VWS V14.01,2013-03-03 22:50:00,
2013-03-03 17:55:00,26.4,16.9,30.05,North,11,3.0,11.0,67,0.00,,---,0.00,VWS V14.01,2013-03-03 22:55:00,
2013-03-03 18:00:00,26.3,16.9,30.05,NNW,330,3.0,11.0,67,0.00,,---,0.00,VWS V14.01,2013-03-03 23:00:00,
2013-03-03 18:05:00,26.1,16.7,30.05,NNE,29,3.0,6.0,67,0.00,,---,0.00,VWS V14.01,2013-03-03 23:05:00,
2013-03-03 18:10:00,25.9,16.5,30.05,NNE,25,2.0,6.0,67,0.00,,---,0.00,VWS V14.01,2013-03-03 23:10:00,
2013-03-03 18:15:00,25.5,16.4,30.06,NNE,12,1.0,6.0,68,0.00,,---,0.00,VWS V14.01,2013-03-03 23:15:00,
2013-03-03 18:21:00,25.2,16.5,30.06,North,11,1.0,6.0,69,0.00,,---,0.00,VWS V14.01,2013-03-03 23:21:00,
2013-03-03 18:26:00,24.7,16.3,30.06,North,11,1.0,6.0,70,0.00,,---,0.00,VWS V14.01,2013-03-03 23:26:00,
2013-03-03 18:31:00,24.3,15.9,30.06,North,11,0.0,6.0,70,0.00,,---,0.00,VWS V14.01,2013-03-03 23:31:00,
2013-03-03 18:36:00,24.0,16.0,30.06,NNE,12,0.0,6.0,71,0.00,,---,0.00,VWS V14.01,2013-03-03 23:36:00,
2013-03-03 18:41:00,23.6,15.9,30.06,North,11,1.0,6.0,72,0.00,,---,0.00,VWS V14.01,2013-03-03 23:41:00,
2013-03-03 18:46:00,23.4,15.7,30.06,North,360,0.0,6.0,72,0.00,,---,0.00,VWS V14.01,2013-03-03 23:46:00,
2013-03-03 18:51:00,23.1,15.8,30.07,North,360,0.0,6.0,73,0.00,,---,0.00,VWS V14.01,2013-03-03 23:51:00,
2013-03-03 18:57:00,22.8,15.5,30.07,North,360,0.0,6.0,73,0.00,,---,0.00,VWS V14.01,2013-03-03 23:57:00,
2013-03-03 19:02:00,22.0,14.7,30.07,North,360,0.0,0.0,73,0.00,,---,0.00,VWS V14.01,2013-03-04 00:02:00,
2013-03-03 19:07:00,21.3,14.3,30.07,North,360,0.0,0.0,74,0.00,,---,0.00,VWS V14.01,2013-03-04 00:07:00,
2013-03-03 19:12:00,20.9,14.5,30.07,North,359,0.0,0.0,76,0.00,,---,0.00,VWS V14.01,2013-03-04 00:12:00,
2013-03-03 19:17:00,20.5,14.7,30.07,North,359,0.0,0.0,78,0.00,,---,0.00,VWS V14.01,2013-03-04 00:17:00,
2013-03-03 19:22:00,20.2,14.7,30.07,North,359,0.0,0.0,79,0.00,,---,0.00,VWS V14.01,2013-03-04 00:22:00,
2013-03-03 19:27:00,20.0,14.6,30.07,North,360,0.0,0.0,79,0.00,,---,0.00,VWS V14.01,2013-03-04 00:27:00,
2013-03-03 19:32:00,19.8,14.6,30.07,North,360,0.0,1.0,80,0.00,,---,0.00,VWS V14.01,2013-03-04 00:32:00,
2013-03-03 19:38:00,19.7,14.5,30.07,North,359,0.0,1.0,80,0.00,,---,0.00,VWS V14.01,2013-03-04 00:38:00,
2013-03-03 19:43:00,19.4,14.5,30.07,North,360,0.0,1.0,81,0.00,,---,0.00,VWS V14.01,2013-03-04 00:43:00,
2013-03-03 19:48:00,19.1,14.2,30.07,North,360,0.0,1.0,81,0.00,,---,0.00,VWS V14.01,2013-03-04 00:48:00,
2013-03-03 19:53:00,18.6,14.0,30.08,North,360,0.0,1.0,82,0.00,,---,0.00,VWS V14.01,2013-03-04 00:53:00,
2013-03-03 19:58:00,18.5,14.2,30.08,North,360,0.0,1.0,83,0.00,,---,0.00,VWS V14.01,2013-03-04 00:58:00,
2013-03-03 20:03:00,18.4,14.4,30.08,North,360,0.0,0.0,84,0.00,,---,0.00,VWS V14.01,2013-03-04 01:03:00,
2013-03-03 20:08:00,18.3,14.3,30.08,North,360,0.0,0.0,84,0.00,,---,0.00,VWS V14.01,2013-03-04 01:08:00,
2013-03-03 20:13:00,18.2,14.2,30.08,North,359,0.0,0.0,84,0.00,,---,0.00,VWS V14.01,2013-03-04 01:13:00,
2013-03-03 20:19:00,17.9,13.9,30.08,North,360,0.0,0.0,84,0.00,,---,0.00,VWS V14.01,2013-03-04 01:19:00,
2013-03-03 20:24:00,17.4,13.4,30.08,North,360,0.0,0.0,84,0.00,,---,0.00,VWS V14.01,2013-03-04 01:24:00,
2013-03-03 20:29:00,16.9,12.9,30.08,North,359,0.0,0.0,84,0.00,,---,0.00,VWS V14.01,2013-03-04 01:29:00,
2013-03-03 20:34:00,16.4,12.7,30.08,North,359,0.0,0.0,85,0.00,,---,0.00,VWS V14.01,2013-03-04 01:34:00,
2013-03-03 20:39:00,16.3,12.9,30.08,North,359,0.0,0.0,86,0.00,,---,0.00,VWS V14.01,2013-03-04 01:39:00,
2013-03-03 20:44:00,15.9,12.5,30.08,North,359,0.0,0.0,86,0.00,,---,0.00,VWS V14.01,2013-03-04 01:44:00,
2013-03-03 20:49:00,15.3,11.9,30.08,North,360,0.0,0.0,86,0.00,,---,0.00,VWS V14.01,2013-03-04 01:49:00,
2013-03-03 20:54:00,15.0,11.8,30.08,North,359,0.0,0.0,87,0.00,,---,0.00,VWS V14.01,2013-03-04 01:54:00,
2013-03-03 20:59:00,14.9,12.0,30.09,North,360,0.0,0.0,88,0.00,,---,0.00,VWS V14.01,2013-03-04 01:59:00,
2013-03-03 21:04:00,14.5,11.6,30.09,North,360,0.0,0.0,88,0.00,,---,0.00,VWS V14.01,2013-03-04 02:04:00,
2013-03-03 21:09:00,14.1,11.2,30.09,North,359,0.0,0.0,88,0.00,,---,0.00,VWS V14.01,2013-03-04 02:09:00,
2013-03-03 21:15:00,14.4,12.0,30.09,North,360,0.0,0.0,90,0.00,,---,0.00,VWS V14.01,2013-03-04 02:15:00,
2013-03-03 21:20:00,15.1,12.9,30.09,North,359,0.0,0.0,91,0.00,,---,0.00,VWS V14.01,2013-03-04 02:20:00,
2013-03-03 21:25:00,15.5,13.4,30.09,North,359,0.0,0.0,91,0.00,,---,0.00,VWS V14.01,2013-03-04 02:25:00,
2013-03-03 21:30:00,15.6,13.4,30.09,North,360,0.0,0.0,91,0.00,,---,0.00,VWS V14.01,2013-03-04 02:30:00,
2013-03-03 21:35:00,15.9,13.7,30.09,North,360,0.0,0.0,91,0.00,,---,0.00,VWS V14.01,2013-03-04 02:35:00,
2013-03-03 21:40:00,16.1,13.9,30.08,North,359,1.0,1.0,91,0.00,,---,0.00,VWS V14.01,2013-03-04 02:40:00,
2013-03-03 21:45:00,16.3,14.1,30.08,North,359,0.0,1.0,91,0.00,,---,0.00,VWS V14.01,2013-03-04 02:45:00,
2013-03-03 21:50:00,16.4,14.0,30.09,North,359,0.0,1.0,90,0.00,,---,0.00,VWS V14.01,2013-03-04 02:50:00,
2013-03-03 21:55:00,16.4,14.0,30.08,North,359,0.0,1.0,90,0.00,,---,0.00,VWS V14.01,2013-03-04 02:55:00,
2013-03-03 22:01:00,16.5,14.1,30.08,North,359,0.0,1.0,90,0.00,,---,0.00,VWS V14.01,2013-03-04 03:01:00,
2013-03-03 22:06:00,16.4,14.0,30.09,North,360,0.0,0.0,90,0.00,,---,0.00,VWS V14.01,2013-03-04 03:06:00,
2013-03-03 22:11:00,16.3,13.9,30.09,North,360,0.0,0.0,90,0.00,,---,0.00,VWS V14.01,2013-03-04 03:11:00,
2013-03-03 22:16:00,16.3,14.1,30.09,North,360,0.0,1.0,91,0.00,,---,0.00,VWS V14.01,2013-03-04 03:16:00,
2013-03-03 22:21:00,16.2,14.0,30.09,North,360,0.0,1.0,91,0.00,,---,0.00,VWS V14.01,2013-03-04 03:21:00,
2013-03-03 22:26:00,16.0,13.8,30.09,North,360,0.0,1.0,91,0.00,,---,0.00,VWS V14.01,2013-03-04 03:26:00,
2013-03-03 22:31:00,15.8,13.6,30.09,North,360,0.0,1.0,91,0.00,,---,0.00,VWS V14.01,2013-03-04 03:31:00,
2013-03-03 22:36:00,15.4,13.0,30.09,North,360,0.0,1.0,90,0.00,,---,0.00,VWS V14.01,2013-03-04 03:36:00,
2013-03-03 22:41:00,14.8,12.4,30.09,North,360,0.0,1.0,90,0.00,,---,0.00,VWS V14.01,2013-03-04 03:41:00,
2013-03-03 22:46:00,14.4,12.3,30.09,North,360,0.0,1.0,91,0.00,,---,0.00,VWS V14.01,2013-03-04 03:46:00,
2013-03-03 22:52:00,14.3,12.2,30.09,North,359,0.0,1.0,91,0.00,,---,0.00,VWS V14.01,2013-03-04 03:52:00,
2013-03-03 22:57:00,14.4,12.3,30.08,North,360,0.0,1.0,91,0.00,,---,0.00,VWS V14.01,2013-03-04 03:57:00,
2013-03-03 23:02:00,14.5,12.4,30.08,North,360,0.0,0.0,91,0.00,,---,0.00,VWS V14.01,2013-03-04 04:02:00,
2013-03-03 23:07:00,14.2,12.1,30.08,North,360,0.0,0.0,91,0.00,,---,0.00,VWS V14.01,2013-03-04 04:07:00,
2013-03-03 23:12:00,13.7,11.3,30.08,North,360,0.0,0.0,90,0.00,,---,0.00,VWS V14.01,2013-03-04 04:12:00,
2013-03-03 23:17:00,13.4,11.3,30.09,North,360,0.0,0.0,91,0.00,,---,0.00,VWS V14.01,2013-03-04 04:17:00,
2013-03-03 23:22:00,13.6,11.5,30.09,North,359,0.0,0.0,91,0.00,,---,0.00,VWS V14.01,2013-03-04 04:22:00,
2013-03-03 23:28:00,13.7,11.8,30.09,North,360,0.0,0.0,92,0.00,,---,0.00,VWS V14.01,2013-03-04 04:28:00,
2013-03-03 23:33:00,13.4,11.3,30.09,North,360,0.0,0.0,91,0.00,,---,0.00,VWS V14.01,2013-03-04 04:33:00,
2013-03-03 23:38:00,13.4,11.5,30.09,North,360,0.0,0.0,92,0.00,,---,0.00,VWS V14.01,2013-03-04 04:38:00,
2013-03-03 23:43:00,13.5,11.6,30.09,North,360,0.0,0.0,92,0.00,,---,0.00,VWS V14.01,2013-03-04 04:43:00,
2013-03-03 23:48:00,13.9,12.2,30.09,West,274,0.0,0.0,93,0.00,,---,0.00,VWS V14.01,2013-03-04 04:48:00,
2013-03-03 23:53:00,14.1,12.4,30.09,WSW,238,1.0,1.0,93,0.00,,---,0.00,VWS V14.01,2013-03-04 04:53:00,
2013-03-03 23:58:00,14.2,12.3,30.09,WSW,240,1.0,1.0,92,0.00,,---,0.00,VWS V14.01,2013-03-04 04:58:00,